createdAt,value
2023-05-08T00:02:10.188Z,92154.81
2023-05-08T00:04:36.804Z,92153.53
2023-05-08T00:07:03.314Z,92143.91
2023-05-08T00:09:29.814Z,92150.75
2023-05-08T00:11:56.317Z,92143.91
2023-05-08T00:14:22.812Z,92143.16
2023-05-08T00:16:49.335Z,92143.91
2023-05-08T00:19:15.829Z,92143.56
2023-05-08T00:21:42.298Z,92142.13
2023-05-08T00:24:08.834Z,92140.63
2023-05-08T00:26:35.372Z,92135.09
2023-05-08T00:29:01.855Z,92135.09
2023-05-08T00:31:28.362Z,92134.53
2023-05-08T00:33:54.894Z,92133.78
2023-05-08T00:36:21.729Z,92139.34
2023-05-08T00:38:48.304Z,92139.50
2023-05-08T00:41:14.849Z,92145.06
2023-05-08T00:43:41.387Z,92145.06
2023-05-08T00:46:09.946Z,92143.56
2023-05-08T00:48:36.686Z,92135.81
2023-05-08T00:51:06.387Z,92140.63
2023-05-08T00:53:37.111Z,92140.63
2023-05-08T00:56:04.974Z,92137.72
2023-05-08T00:58:32.683Z,92145.88
2023-05-08T01:01:00.801Z,92148.47
2023-05-08T01:03:28.673Z,92147.75
2023-05-08T01:05:55.250Z,92141.28
2023-05-08T01:08:21.805Z,92141.28
2023-05-08T01:10:54.258Z,92138.22
2023-05-08T01:13:47.159Z,92140.97
2023-05-08T01:16:35.971Z,92139.34
2023-05-08T01:19:24.204Z,92147.66
2023-05-08T01:22:14.547Z,92147.66
2023-05-08T01:25:11.407Z,92146.19
2023-05-08T01:28:01.959Z,92147.50
2023-05-08T01:30:46.660Z,92151.56
2023-05-08T01:33:32.082Z,92146.03
2023-05-08T01:36:17.351Z,92141.81
2023-05-08T01:39:02.202Z,92143.09
2023-05-08T01:41:31.652Z,92137.38
2023-05-08T01:44:00.873Z,92138.69
2023-05-08T01:46:30.880Z,92137.25
2023-05-08T01:49:13.002Z,92135.75
2023-05-08T01:51:43.904Z,92143.50
2023-05-08T01:54:14.673Z,92141.31
2023-05-08T01:56:44.159Z,92145.41
2023-05-08T01:59:14.726Z,92145.22
2023-05-08T02:01:42.267Z,92147.81
2023-05-08T02:04:11.271Z,92143.56
2023-05-08T02:06:38.882Z,92142.13
2023-05-08T02:09:08.807Z,92151.88
2023-05-08T02:11:38.139Z,92142.88
2023-05-08T02:14:07.081Z,92139.19
2023-05-08T02:16:35.948Z,92150.28
2023-05-08T02:19:04.455Z,92154.34
2023-05-08T02:21:31.967Z,92140.50
2023-05-08T02:24:00.325Z,92139.19
2023-05-08T02:26:28.604Z,92136.25
2023-05-08T02:28:56.169Z,92137.72
2023-05-08T02:31:24.507Z,92140.50
2023-05-08T02:33:52.761Z,92144.56
2023-05-08T02:36:20.755Z,92145.88
2023-05-08T02:38:52.766Z,92142.94
2023-05-08T02:41:22.355Z,92140.16
2023-05-08T02:43:50.110Z,92148.47
2023-05-08T02:46:24.353Z,92151.06
2023-05-08T02:49:33.624Z,92140.00
2023-05-08T02:52:08.751Z,92148.31
2023-05-08T02:54:46.307Z,92147.03
2023-05-08T02:57:37.679Z,92146.28
2023-05-08T03:00:13.707Z,92143.34
2023-05-08T03:02:43.868Z,92140.00
2023-05-08T03:05:17.643Z,92150.34
2023-05-08T03:07:45.297Z,92142.59
2023-05-08T03:10:13.836Z,92147.44
2023-05-08T03:12:45.777Z,92142.59
2023-05-08T03:15:20.701Z,92146.50
2023-05-08T03:17:50.886Z,92144.50
2023-05-08T03:20:19.719Z,92143.00
2023-05-08T03:22:48.323Z,92142.28
2023-05-08T03:25:18.028Z,92154.66
2023-05-08T03:27:45.700Z,92151.88
2023-05-08T03:30:13.427Z,92150.44
2023-05-08T03:32:41.411Z,92155.97
2023-05-08T03:35:09.733Z,92151.56
2023-05-08T03:37:36.654Z,92144.72
2023-05-08T03:40:03.832Z,92150.09
2023-05-08T03:42:31.338Z,92164.13
2023-05-08T03:44:57.896Z,92158.56
2023-05-08T03:47:28.292Z,92157.09
2023-05-08T03:49:55.337Z,92157.84
2023-05-08T03:52:21.868Z,92166.31
2023-05-08T03:54:48.367Z,92162.22
2023-05-08T03:57:14.929Z,92174.06
2023-05-08T04:00:02.447Z,92162.97
2023-05-08T04:02:33.697Z,92165.16
2023-05-08T04:05:20.926Z,92168.50
2023-05-08T04:07:53.833Z,92167.78
2023-05-08T04:10:27.309Z,92165.91
2023-05-08T04:13:13.341Z,92171.47
2023-05-08T04:16:00.952Z,92171.47
2023-05-08T04:18:30.183Z,92168.84
2023-05-08T04:20:58.049Z,92174.72
2023-05-08T04:23:25.243Z,92177.66
2023-05-08T04:25:53.055Z,92183.19
2023-05-08T04:28:21.634Z,92176.94
2023-05-08T04:30:49.541Z,92185.06
2023-05-08T04:33:18.230Z,92189.88
2023-05-08T04:35:46.296Z,92194.69
2023-05-08T04:38:12.871Z,92192.06
2023-05-08T04:40:39.481Z,92184.34
2023-05-08T04:43:06.188Z,92194.28
2023-05-08T04:45:32.749Z,92197.03
2023-05-08T04:47:59.283Z,92197.97
2023-05-08T04:50:25.987Z,92196.50
2023-05-08T04:52:52.506Z,92200.31
2023-05-08T04:55:19.051Z,92202.34
2023-05-08T04:57:45.881Z,92201.63
2023-05-08T05:00:13.020Z,92201.63
2023-05-08T05:02:39.565Z,92201.63
2023-05-08T05:05:06.559Z,92198.69
2023-05-08T05:07:33.034Z,92209.44
2023-05-08T05:10:00.620Z,92204.31
2023-05-08T05:12:27.120Z,92203.56
2023-05-08T05:14:53.604Z,92203.38
2023-05-08T05:17:20.108Z,92210.41
2023-05-08T05:19:47.164Z,92207.47
2023-05-08T05:22:13.654Z,92211.00
2023-05-08T05:24:40.938Z,92214.34
2023-05-08T05:27:07.485Z,92216.94
2023-05-08T05:29:33.995Z,92218.22
2023-05-08T05:32:01.503Z,92218.03
2023-05-08T05:34:28.094Z,92220.81
2023-05-08T05:36:54.576Z,92223.59
2023-05-08T05:39:21.056Z,92220.66
2023-05-08T05:41:47.559Z,92223.41
2023-05-08T05:44:14.096Z,92224.72
2023-05-08T05:46:43.540Z,92224.91
2023-05-08T05:49:11.850Z,92224.00
2023-05-08T05:51:38.338Z,92232.31
2023-05-08T05:54:04.903Z,92227.34
2023-05-08T05:56:31.397Z,92227.34
2023-05-08T05:58:57.862Z,92221.78
2023-05-08T06:01:29.057Z,92230.09
2023-05-08T06:03:55.909Z,92232.88
2023-05-08T06:06:22.720Z,92228.81
2023-05-08T06:08:49.178Z,92229.94
2023-05-08T06:11:15.673Z,92232.13
2023-05-08T06:13:43.821Z,92232.13
2023-05-08T06:16:10.322Z,92231.41
2023-05-08T06:18:36.810Z,92231.41
2023-05-08T06:21:03.507Z,92228.47
2023-05-08T06:23:30.109Z,92228.47
2023-05-08T06:25:56.675Z,92227.72
2023-05-08T06:28:25.956Z,92229.75
2023-05-08T06:30:52.816Z,92229.63
2023-05-08T06:33:19.566Z,92222.59
2023-05-08T06:35:47.720Z,92222.59
2023-05-08T06:38:14.906Z,92229.63
2023-05-08T06:40:43.719Z,92231.66
2023-05-08T06:43:10.898Z,92226.66
2023-05-08T06:45:37.403Z,92229.44
2023-05-08T06:48:04.159Z,92230.72
2023-05-08T06:50:31.252Z,92236.25
2023-05-08T06:52:57.856Z,92226.66
2023-05-08T06:55:24.391Z,92225.19
2023-05-08T06:57:50.973Z,92232.22
2023-05-08T07:00:17.641Z,92231.47
2023-05-08T07:02:44.223Z,92230.72
2023-05-08T07:05:11.197Z,92237.00
2023-05-08T07:07:37.952Z,92225.19
2023-05-08T07:10:05.924Z,92230.72
2023-05-08T07:12:33.747Z,92227.38
2023-05-08T07:15:02.002Z,92230.00
2023-05-08T07:17:36.986Z,92226.66
2023-05-08T07:20:04.378Z,92229.44
2023-05-08T07:22:30.926Z,92231.47
2023-05-08T07:24:57.871Z,92230.72
2023-05-08T07:27:24.353Z,92232.22
2023-05-08T07:29:50.958Z,92228.13
2023-05-08T07:32:17.694Z,92226.66
2023-05-08T07:34:44.366Z,92226.66
2023-05-08T07:37:11.925Z,92228.13
2023-05-08T07:39:38.439Z,92225.34
2023-05-08T07:42:04.986Z,92234.97
2023-05-08T07:44:43.496Z,92232.22
2023-05-08T07:47:13.722Z,92227.38
2023-05-08T07:49:40.408Z,92236.63
2023-05-08T07:52:06.887Z,92238.81
2023-05-08T07:54:33.420Z,92233.84
2023-05-08T07:56:59.887Z,92230.28
2023-05-08T07:59:26.402Z,92225.06
2023-05-08T08:01:53.331Z,92226.69
2023-05-08T08:04:19.928Z,92220.25
2023-05-08T08:06:46.480Z,92232.06
2023-05-08T08:09:13.026Z,92228.72
2023-05-08T08:11:39.563Z,92227.44
2023-05-08T08:14:06.129Z,92225.41
2023-05-08T08:16:32.717Z,92221.34
2023-05-08T08:18:59.627Z,92226.88
2023-05-08T08:21:26.099Z,92234.03
2023-05-08T08:23:52.654Z,92227.22
2023-05-08T08:26:19.127Z,92230.69
2023-05-08T08:28:45.619Z,92220.19
2023-05-08T08:31:12.167Z,92222.38
2023-05-08T08:33:39.108Z,92229.41
2023-05-08T08:36:06.265Z,92224.63
2023-05-08T08:38:32.729Z,92226.06
2023-05-08T08:40:59.356Z,92219.06
2023-05-08T08:43:26.666Z,92224.63
2023-05-08T08:45:53.395Z,92225.91
2023-05-08T08:48:21.800Z,92225.91
2023-05-08T08:50:53.335Z,92223.13
2023-05-08T08:53:30.883Z,92220.53
2023-05-08T08:56:00.774Z,92222.00
2023-05-08T08:58:32.027Z,92217.75
2023-05-08T09:01:00.649Z,92223.88
2023-05-08T09:03:27.755Z,92221.28
2023-05-08T09:05:55.288Z,92222.72
2023-05-08T09:08:21.785Z,92220.13
2023-05-08T09:10:48.921Z,92219.38
2023-05-08T09:13:16.705Z,92215.31
2023-05-08T09:15:44.689Z,92214.59
2023-05-08T09:18:11.215Z,92214.00
2023-05-08T09:20:40.799Z,92218.28
2023-05-08T09:23:08.379Z,92212.56
2023-05-08T09:25:41.600Z,92211.25
2023-05-08T09:28:19.111Z,92212.56
2023-05-08T09:30:53.131Z,92218.28
2023-05-08T09:33:21.603Z,92211.25
2023-05-08T09:35:51.347Z,92204.25
2023-05-08T09:38:30.012Z,92208.47
2023-05-08T09:41:26.726Z,92206.44
2023-05-08T09:44:07.396Z,92208.63
2023-05-08T09:46:34.708Z,92205.28
2023-05-08T09:49:03.429Z,92204.56
2023-05-08T09:51:31.986Z,92203.25
2023-05-08T09:54:00.078Z,92199.00
2023-05-08T09:56:40.080Z,92201.22
2023-05-08T09:59:23.744Z,92199.91
2023-05-08T10:01:50.983Z,92201.41
2023-05-08T10:04:17.661Z,92200.84
2023-05-08T10:06:44.198Z,92196.56
2023-05-08T10:09:14.719Z,92203.59
2023-05-08T10:11:51.913Z,92193.09
2023-05-08T10:14:19.543Z,92191.78
2023-05-08T10:16:46.894Z,92186.81
2023-05-08T10:19:16.158Z,92192.34
2023-05-08T10:21:46.988Z,92192.34
2023-05-08T10:24:21.793Z,92191.03
2023-05-08T10:27:17.690Z,92183.47
2023-05-08T10:30:06.810Z,92179.22
2023-05-08T10:32:42.357Z,92175.72
2023-05-08T10:35:11.015Z,92177.16
2023-05-08T10:37:39.312Z,92172.94
2023-05-08T10:40:06.659Z,92174.41
2023-05-08T10:42:35.397Z,92182.00
2023-05-08T10:45:04.806Z,92173.13
2023-05-08T10:47:53.000Z,92171.63
2023-05-08T10:50:46.714Z,92167.56
2023-05-08T10:53:22.516Z,92167.72
2023-05-08T10:55:51.765Z,92164.97
2023-05-08T10:58:24.252Z,92154.59
2023-05-08T11:00:53.370Z,92145.69
2023-05-08T11:03:31.475Z,92156.78
2023-05-08T11:06:01.705Z,92144.97
2023-05-08T11:08:29.680Z,92140.16
2023-05-08T11:11:02.108Z,92140.91
2023-05-08T11:13:41.308Z,92136.09
2023-05-08T11:16:08.484Z,92136.84
2023-05-08T11:18:48.614Z,92126.47
2023-05-08T11:21:21.794Z,92126.47
2023-05-08T11:23:57.524Z,92134.94
2023-05-08T11:26:39.949Z,92125.34
2023-05-08T11:29:16.781Z,92122.56
2023-05-08T11:31:50.546Z,92115.69
2023-05-08T11:34:42.155Z,92117.16
2023-05-08T11:37:16.706Z,92111.63
2023-05-08T11:39:43.303Z,92107.38
2023-05-08T11:42:24.872Z,92120.09
2023-05-08T11:45:10.220Z,92115.28
2023-05-08T11:47:41.904Z,92111.94
2023-05-08T11:50:10.201Z,92109.16
2023-05-08T11:52:37.941Z,92107.88
2023-05-08T11:55:09.611Z,92102.34
2023-05-08T11:57:36.371Z,92102.34
2023-05-08T12:00:09.684Z,92098.97
2023-05-08T12:02:40.618Z,92099.69
2023-05-08T12:05:08.562Z,92105.97
2023-05-08T12:07:46.442Z,92101.91
2023-05-08T12:10:15.079Z,92104.13
2023-05-08T12:12:43.432Z,92107.06
2023-05-08T12:15:14.616Z,92101.50
2023-05-08T12:17:42.547Z,92103.72
2023-05-08T12:20:18.654Z,92104.44
2023-05-08T12:22:52.838Z,92101.66
2023-05-08T12:25:20.295Z,92101.81
2023-05-08T12:27:49.855Z,92099.19
2023-05-08T12:30:17.320Z,92103.28
2023-05-08T12:32:44.644Z,92101.41
2023-05-08T12:35:12.986Z,92099.53
2023-05-08T12:37:39.902Z,92099.53
2023-05-08T12:40:07.310Z,92096.91
2023-05-08T12:42:48.811Z,92087.28
2023-05-08T12:45:28.037Z,92093.56
2023-05-08T12:47:59.469Z,92090.22
2023-05-08T12:50:26.075Z,92093.16
2023-05-08T12:52:52.678Z,92096.09
2023-05-08T12:55:29.232Z,92094.63
2023-05-08T12:57:59.738Z,92097.53
2023-05-08T13:00:26.391Z,92092.00
2023-05-08T13:02:56.629Z,92089.22
2023-05-08T13:05:23.899Z,92087.94
2023-05-08T13:07:51.483Z,92083.81
2023-05-08T13:10:23.884Z,92083.13
2023-05-08T13:12:52.242Z,92079.75
2023-05-08T13:15:18.825Z,92070.13
2023-05-08T13:17:45.395Z,92075.81
2023-05-08T13:20:12.199Z,92078.59
2023-05-08T13:22:38.800Z,92072.31
2023-05-08T13:25:05.916Z,92062.69
2023-05-08T13:27:32.421Z,92074.50
2023-05-08T13:29:58.963Z,92071.91
2023-05-08T13:32:25.548Z,92061.53
2023-05-08T13:34:54.158Z,92060.97
2023-05-08T13:37:24.174Z,92058.19
2023-05-08T13:39:50.679Z,92055.41
2023-05-08T13:42:17.195Z,92056.88
2023-05-08T13:44:43.756Z,92059.66
2023-05-08T13:47:10.372Z,92059.66
2023-05-08T13:49:36.878Z,92048.56
2023-05-08T13:52:03.634Z,92051.34
2023-05-08T13:54:30.119Z,92052.63
2023-05-08T13:56:56.669Z,92052.63
2023-05-08T13:59:23.214Z,92047.81
2023-05-08T14:01:49.742Z,92058.19
2023-05-08T14:04:16.272Z,92051.91
2023-05-08T14:06:42.776Z,92052.47
2023-05-08T14:09:09.300Z,92046.34
2023-05-08T14:11:35.816Z,92048.56
2023-05-08T14:14:02.376Z,92054.13
2023-05-08T14:16:28.959Z,92044.31
2023-05-08T14:18:55.928Z,92050.03
2023-05-08T14:21:22.445Z,92044.66
2023-05-08T14:23:49.002Z,92043.34
2023-05-08T14:26:15.949Z,92041.88
2023-05-08T14:28:42.433Z,92039.13
2023-05-08T14:31:09.048Z,92041.88
2023-05-08T14:33:35.541Z,92030.44
2023-05-08T14:36:02.031Z,92038.94
2023-05-08T14:38:28.515Z,92031.94
2023-05-08T14:40:55.010Z,92033.22
2023-05-08T14:43:21.940Z,92033.22
2023-05-08T14:45:48.992Z,92026.94
2023-05-08T14:48:15.701Z,92030.44
2023-05-08T14:50:42.579Z,92034.69
2023-05-08T14:53:09.320Z,92033.22
2023-05-08T14:55:36.226Z,92035.25
2023-05-08T14:58:03.055Z,92034.53
2023-05-08T15:00:29.548Z,92026.22
2023-05-08T15:02:56.210Z,92029.00
2023-05-08T15:05:22.963Z,92022.97
2023-05-08T15:07:50.230Z,92030.28
2023-05-08T15:10:16.806Z,92026.81
2023-05-08T15:12:43.376Z,92030.13
2023-05-08T15:15:10.402Z,92037.16
2023-05-08T15:17:37.027Z,92041.22
2023-05-08T15:20:04.493Z,92035.66
2023-05-08T15:22:31.006Z,92043.88
2023-05-08T15:25:02.350Z,92046.63
2023-05-08T15:27:29.929Z,92054.97
2023-05-08T15:29:56.860Z,92042.38
2023-05-08T15:32:23.902Z,92054.22
2023-05-08T15:34:50.519Z,92054.06
2023-05-08T15:37:17.162Z,92054.72
2023-05-08T15:39:43.629Z,92053.53
2023-05-08T15:42:10.140Z,92059.66
2023-05-08T15:47:06.002Z,92062.16
2023-05-08T15:49:32.478Z,92063.63
2023-05-08T15:51:58.976Z,92070.63
2023-05-08T15:54:25.476Z,92076.19
2023-05-08T15:56:52.000Z,92070.63
2023-05-08T15:59:18.516Z,92074.72
2023-05-08T16:01:46.905Z,92080.84
2023-05-08T16:04:13.712Z,92079.94
2023-05-08T16:06:40.214Z,92077.00
2023-05-08T16:09:06.729Z,92087.41
2023-05-08T16:11:33.394Z,92094.81
2023-05-08T16:14:00.030Z,92097.41
2023-05-08T16:16:26.655Z,92104.44
2023-05-08T16:18:53.347Z,92109.25
2023-05-08T16:21:19.968Z,92105.56
2023-05-08T16:23:46.497Z,92109.81
2023-05-08T16:26:14.072Z,92105.56
2023-05-08T16:28:40.534Z,92110.41
2023-05-08T16:31:07.713Z,92109.66
2023-05-08T16:33:34.347Z,92114.47
2023-05-08T16:36:00.919Z,92115.22
2023-05-08T16:38:27.415Z,92119.28
2023-05-08T16:40:53.902Z,92120.75
2023-05-08T16:43:20.452Z,92113.88
2023-05-08T16:45:51.212Z,92124.81
2023-05-08T16:48:17.767Z,92124.81
2023-05-08T16:50:44.252Z,92125.56
2023-05-08T16:53:10.803Z,92129.25
2023-05-08T16:55:37.293Z,92134.94
2023-05-08T16:58:04.697Z,92140.50
2023-05-08T17:00:31.283Z,92145.88
2023-05-08T17:02:57.939Z,92147.31
2023-05-08T17:05:24.542Z,92150.28
2023-05-08T17:07:51.384Z,92155.81
2023-05-08T17:10:17.972Z,92161.34
2023-05-08T17:12:44.511Z,92166.91
2023-05-08T17:15:11.578Z,92163.81
2023-05-08T17:17:38.335Z,92161.78
2023-05-08T17:20:05.612Z,92159.56
2023-05-08T17:22:32.105Z,92161.03
2023-05-08T17:24:58.608Z,92162.50
2023-05-08T17:27:25.135Z,92156.97
2023-05-08T17:29:51.630Z,92161.94
2023-05-08T17:32:18.112Z,92162.81
2023-05-08T17:34:44.695Z,92168.38
2023-05-08T17:37:11.851Z,92166.50
2023-05-08T17:39:38.364Z,92167.94
2023-05-08T17:42:04.963Z,92173.66
2023-05-08T17:44:31.520Z,92167.41
2023-05-08T17:46:58.018Z,92178.34
2023-05-08T17:49:24.492Z,92180.19
2023-05-08T17:51:50.965Z,92190.53
2023-05-08T17:54:17.482Z,92190.00
2023-05-08T17:56:44.820Z,92190.53
2023-05-08T17:59:11.372Z,92195.38
2023-05-08T18:01:37.899Z,92196.09
2023-05-08T18:04:04.762Z,92199.44
2023-05-08T18:06:31.484Z,92200.19
2023-05-08T18:08:58.024Z,92204.28
2023-05-08T18:11:26.058Z,92201.34
2023-05-08T18:13:53.838Z,92210.22
2023-05-08T18:16:21.713Z,92197.66
2023-05-08T18:18:49.608Z,92214.28
2023-05-08T18:21:16.139Z,92216.16
2023-05-08T18:23:42.665Z,92221.69
2023-05-08T18:26:13.387Z,92220.25
2023-05-08T18:28:39.897Z,92225.94
2023-05-08T18:31:06.449Z,92223.75
2023-05-08T18:33:33.020Z,92232.47
2023-05-08T18:35:59.564Z,92228.22
2023-05-08T18:38:26.090Z,92232.31
2023-05-08T18:40:52.585Z,92233.28
2023-05-08T18:43:19.121Z,92236.78
2023-05-08T18:45:45.758Z,92237.50
2023-05-08T18:48:12.311Z,92242.88
2023-05-08T18:50:38.842Z,92244.22
2023-05-08T18:53:06.367Z,92238.66
2023-05-08T18:55:32.880Z,92242.88
2023-05-08T18:57:59.388Z,92241.44
2023-05-08T19:00:26.157Z,92246.97
2023-05-08T19:02:52.719Z,92240.69
2023-05-08T19:05:19.374Z,92246.25
2023-05-08T19:07:46.079Z,92248.13
2023-05-08T19:10:12.953Z,92255.13
2023-05-08T19:12:40.024Z,92255.13
2023-05-08T19:15:08.915Z,92250.72
2023-05-08T19:17:36.896Z,92256.44
2023-05-08T19:20:04.074Z,92264.59
2023-05-08T19:22:32.455Z,92267.34
2023-05-08T19:25:00.492Z,92261.66
2023-05-08T19:27:29.007Z,92254.78
2023-05-08T19:29:55.894Z,92256.09
2023-05-08T19:32:22.421Z,92274.19
2023-05-08T19:34:48.931Z,92265.88
2023-05-08T19:37:15.475Z,92264.41
2023-05-08T19:39:41.974Z,92267.34
2023-05-08T19:42:10.279Z,92277.69
2023-05-08T19:44:36.768Z,92276.25
2023-05-08T19:47:04.110Z,92272.72
2023-05-08T19:49:30.966Z,92271.25
2023-05-08T19:51:57.462Z,92275.34
2023-05-08T19:54:23.957Z,92269.78
2023-05-08T19:56:50.614Z,92275.16
2023-05-08T19:59:17.110Z,92278.84
2023-05-08T20:01:43.804Z,92275.16
2023-05-08T20:04:10.365Z,92269.63
2023-05-08T20:06:38.338Z,92280.69
2023-05-08T20:09:06.134Z,92279.97
2023-05-08T20:11:32.684Z,92275.72
2023-05-08T20:13:59.191Z,92284.63
2023-05-08T20:16:25.861Z,92280.34
2023-05-08T20:18:55.531Z,92278.91
2023-05-08T20:21:22.051Z,92280.34
2023-05-08T20:23:48.565Z,92278.91
2023-05-08T20:26:15.071Z,92274.81
2023-05-08T20:28:41.557Z,92280.34
2023-05-08T20:31:08.314Z,92280.34
2023-05-08T20:33:34.947Z,92281.84
2023-05-08T20:36:01.484Z,92282.41
2023-05-08T20:38:27.994Z,92275.56
2023-05-08T20:40:56.919Z,92275.56
2023-05-08T20:43:25.953Z,92269.28
2023-05-08T20:45:52.462Z,92270.59
2023-05-08T20:48:19.019Z,92271.34
2023-05-08T20:50:48.456Z,92273.34
2023-05-08T20:53:15.015Z,92275.97
2023-05-08T20:55:41.665Z,92270.41
2023-05-08T20:58:09.161Z,92263.97
2023-05-08T21:00:36.141Z,92267.47
2023-05-08T21:03:03.349Z,92262.09
2023-05-08T21:05:29.900Z,92266.19
2023-05-08T21:07:59.987Z,92260.66
2023-05-08T21:10:28.678Z,92253.44
2023-05-08T21:12:55.290Z,92261.94
2023-05-08T21:15:21.926Z,92252.72
2023-05-08T21:17:48.480Z,92259.00
2023-05-08T21:20:15.375Z,92255.31
2023-05-08T21:22:42.223Z,92258.81
2023-05-08T21:25:12.654Z,92255.16
2023-05-08T21:27:42.415Z,92258.66
2023-05-08T21:30:14.876Z,92267.88
2023-05-08T21:32:42.761Z,92259.00
2023-05-08T21:35:10.104Z,92259.31
2023-05-08T21:37:36.578Z,92265.22
2023-05-08T21:40:04.583Z,92260.38
2023-05-08T21:42:32.307Z,92259.66
2023-05-08T21:44:59.263Z,92258.53
2023-05-08T21:47:28.026Z,92248.19
2023-05-08T21:49:54.883Z,92247.63
2023-05-08T21:52:22.478Z,92250.38
2023-05-08T21:54:49.414Z,92255.94
2023-05-08T21:57:15.909Z,92248.53
2023-05-08T21:59:42.410Z,92248.53
2023-05-08T22:02:08.962Z,92256.28
2023-05-08T22:04:35.655Z,92257.00
2023-05-08T22:07:02.142Z,92250.72
2023-05-08T22:09:28.617Z,92253.66
2023-05-08T22:11:55.122Z,92245.91
2023-05-08T22:14:21.605Z,92246.81
2023-05-08T22:16:48.113Z,92248.13
2023-05-08T22:19:15.160Z,92239.63
2023-05-08T22:21:42.530Z,92244.44
2023-05-08T22:24:09.030Z,92247.78
2023-05-08T22:26:35.497Z,92243.69
2023-05-08T22:29:02.060Z,92240.34
2023-05-08T22:31:28.596Z,92245.91
2023-05-08T22:33:55.143Z,92237.03
2023-05-08T22:36:23.871Z,92244.03
2023-05-08T22:38:50.557Z,92243.47
2023-05-08T22:41:17.110Z,92242.59
2023-05-08T22:43:43.678Z,92245.19
2023-05-08T22:46:10.578Z,92242.97
2023-05-08T22:48:37.577Z,92242.63
2023-05-08T22:51:04.505Z,92248.19
2023-05-08T22:53:31.027Z,92240.44
2023-05-08T22:55:57.584Z,92243.03
2023-05-08T22:58:25.336Z,92241.56
2023-05-08T23:00:52.018Z,92239.34
2023-05-08T23:03:18.726Z,92235.69
2023-05-08T23:05:45.265Z,92234.22
2023-05-08T23:08:11.783Z,92227.94
2023-05-08T23:10:38.254Z,92232.75
2023-05-08T23:13:04.806Z,92231.28
2023-05-08T23:15:31.369Z,92229.81
2023-05-08T23:17:57.891Z,92228.34
2023-05-08T23:20:24.408Z,92223.38
2023-05-08T23:22:50.958Z,92221.34
2023-05-08T23:25:17.471Z,92214.34
2023-05-08T23:27:44.050Z,92205.84
2023-05-08T23:30:13.600Z,92203.63
2023-05-08T23:32:40.301Z,92207.88
2023-05-08T23:35:07.347Z,92212.84
2023-05-08T23:37:33.858Z,92198.81
2023-05-08T23:40:00.356Z,92209.91
2023-05-08T23:42:27.539Z,92197.38
2023-05-08T23:44:54.135Z,92204.38
2023-05-08T23:47:22.424Z,92195.16
2023-05-08T23:49:49.039Z,92204.19
2023-05-08T23:52:15.816Z,92192.22
2023-05-08T23:54:42.337Z,92191.66
2023-05-08T23:57:08.881Z,92196.44
2023-05-08T23:59:35.403Z,92188.16
